createdAt,value
2018-08-06T00:02:06.714Z,5.22
2018-08-06T00:04:42.110Z,4.92
2018-08-06T00:07:17.461Z,5.40
2018-08-06T00:09:53.009Z,5.10
2018-08-06T00:12:28.683Z,5.20
2018-08-06T00:15:05.613Z,4.80
2018-08-06T00:17:41.423Z,4.55
2018-08-06T00:20:17.018Z,5.50
2018-08-06T00:22:52.314Z,4.75
2018-08-06T00:25:27.592Z,4.87
2018-08-06T00:28:03.637Z,5.05
2018-08-06T00:30:39.089Z,4.92
2018-08-06T00:33:14.378Z,4.90
2018-08-06T00:35:49.276Z,4.65
2018-08-06T00:38:24.707Z,5.87
2018-08-06T00:41:00.197Z,4.67
2018-08-06T00:43:35.787Z,5.10
2018-08-06T00:46:11.489Z,4.85
2018-08-06T00:48:46.833Z,4.80
2018-08-06T00:51:22.250Z,5.03
2018-08-06T00:53:58.158Z,4.85
2018-08-06T00:56:33.093Z,5.00
2018-08-06T00:59:08.481Z,4.80
2018-08-06T01:01:43.866Z,4.87
2018-08-06T01:04:19.417Z,5.75
2018-08-06T01:06:54.917Z,4.85
2018-08-06T01:09:29.666Z,4.90
2018-08-06T01:12:04.325Z,5.65
2018-08-06T01:14:39.115Z,5.40
2018-08-06T01:17:13.914Z,5.40
2018-08-06T01:19:49.360Z,5.50
2018-08-06T01:22:24.119Z,4.80
2018-08-06T01:24:59.133Z,5.17
2018-08-06T01:27:34.958Z,4.87
2018-08-06T01:30:11.659Z,5.63
2018-08-06T01:32:46.255Z,5.30
2018-08-06T01:35:21.164Z,5.03
2018-08-06T01:37:57.005Z,5.20
2018-08-06T01:40:31.870Z,5.07
2018-08-06T01:43:06.705Z,5.07
2018-08-06T01:45:41.737Z,5.17
2018-08-06T01:48:16.766Z,5.70
2018-08-06T01:50:51.484Z,4.90
2018-08-06T01:53:26.729Z,5.17
2018-08-06T01:56:01.453Z,5.37
2018-08-06T01:58:36.449Z,4.97
2018-08-06T02:01:11.426Z,4.87
2018-08-06T02:03:46.299Z,5.00
2018-08-06T02:06:21.346Z,5.17
2018-08-06T02:08:56.154Z,4.57
2018-08-06T02:11:30.976Z,5.27
2018-08-06T02:14:05.994Z,4.90
2018-08-06T02:16:41.129Z,4.67
2018-08-06T02:19:16.130Z,4.70
2018-08-06T02:21:50.831Z,5.30
2018-08-06T02:24:25.350Z,4.80
2018-08-06T02:27:00.035Z,4.87
2018-08-06T02:29:35.077Z,5.10
2018-08-06T02:32:09.901Z,5.10
2018-08-06T02:34:44.846Z,4.97
2018-08-06T02:37:19.816Z,5.10
2018-08-06T02:39:54.531Z,4.97
2018-08-06T02:42:30.169Z,4.83
2018-08-06T02:45:06.255Z,4.83
2018-08-06T02:47:41.001Z,4.70
2018-08-06T02:50:16.086Z,5.03
2018-08-06T02:52:50.975Z,5.60
2018-08-06T02:55:25.351Z,5.27
2018-08-06T02:58:00.521Z,5.47
2018-08-06T03:00:35.354Z,5.53
2018-08-06T03:03:10.445Z,4.90
2018-08-06T03:05:45.274Z,5.33
2018-08-06T03:08:20.127Z,4.90
2018-08-06T03:10:55.298Z,5.00
2018-08-06T03:13:30.551Z,5.43
2018-08-06T03:16:05.921Z,6.33
2018-08-06T03:18:40.869Z,6.70
2018-08-06T03:21:15.659Z,5.57
2018-08-06T03:23:50.431Z,5.83
2018-08-06T03:26:25.151Z,5.70
2018-08-06T03:29:00.722Z,5.90
2018-08-06T03:31:36.446Z,5.50
2018-08-06T03:34:11.232Z,6.33
2018-08-06T03:36:46.002Z,6.07
2018-08-06T03:39:21.248Z,5.83
2018-08-06T03:41:56.169Z,6.67
2018-08-06T03:44:30.967Z,6.57
2018-08-06T03:47:06.138Z,6.60
2018-08-06T03:49:40.980Z,5.90
2018-08-06T03:52:15.897Z,6.13
2018-08-06T03:54:50.741Z,6.23
2018-08-06T03:57:25.866Z,5.97
2018-08-06T04:00:00.519Z,6.60
2018-08-06T04:02:35.629Z,6.47
2018-08-06T04:05:12.506Z,7.27
2018-08-06T04:07:47.243Z,6.50
2018-08-06T04:10:22.114Z,6.73
2018-08-06T04:12:56.973Z,5.87
2018-08-06T04:15:31.868Z,6.30
2018-08-06T04:18:07.424Z,5.73
2018-08-06T04:20:42.310Z,6.40
2018-08-06T04:23:17.626Z,6.03
2018-08-06T04:25:52.881Z,5.80
2018-08-06T04:28:27.757Z,6.30
2018-08-06T04:31:02.549Z,6.47
2018-08-06T04:33:37.282Z,6.50
2018-08-06T04:36:12.209Z,6.13
2018-08-06T04:38:47.062Z,5.90
2018-08-06T04:41:22.166Z,6.67
2018-08-06T04:43:56.984Z,5.77
2018-08-06T04:46:31.826Z,5.97
2018-08-06T04:49:06.809Z,6.43
2018-08-06T04:51:42.337Z,7.50
2018-08-06T04:54:17.184Z,7.83
2018-08-06T04:56:51.944Z,5.93
2018-08-06T04:59:27.491Z,5.93
2018-08-06T05:02:02.918Z,6.67
2018-08-06T05:04:37.921Z,5.50
2018-08-06T05:07:12.981Z,5.63
2018-08-06T05:09:47.622Z,5.97
2018-08-06T05:12:22.420Z,6.13
2018-08-06T05:14:57.215Z,7.60
2018-08-06T05:17:32.131Z,6.60
2018-08-06T05:20:06.924Z,6.80
2018-08-06T05:22:41.723Z,6.87
2018-08-06T05:25:16.794Z,7.23
2018-08-06T05:27:51.476Z,7.20
2018-08-06T05:30:26.297Z,7.70
2018-08-06T05:33:01.098Z,7.20
2018-08-06T05:35:36.943Z,6.83
2018-08-06T05:38:11.757Z,6.90
2018-08-06T05:40:46.499Z,7.60
2018-08-06T05:43:21.333Z,6.77
2018-08-06T05:45:56.826Z,7.08
2018-08-06T05:48:34.534Z,6.73
2018-08-06T05:51:11.128Z,6.60
2018-08-06T05:53:46.464Z,6.62
2018-08-06T05:56:21.185Z,6.97
2018-08-06T05:58:56.366Z,7.13
2018-08-06T06:01:32.106Z,6.60
2018-08-06T06:04:07.523Z,7.62
2018-08-06T06:06:43.285Z,7.97
2018-08-06T06:09:18.722Z,6.80
2018-08-06T06:11:54.466Z,6.60
2018-08-06T06:14:29.806Z,6.67
2018-08-06T06:17:05.290Z,6.92
2018-08-06T06:19:40.426Z,6.67
2018-08-06T06:22:15.929Z,6.37
2018-08-06T06:24:51.555Z,6.53
2018-08-06T06:27:27.071Z,6.40
2018-08-06T06:30:02.574Z,5.60
2018-08-06T06:32:38.330Z,6.70
2018-08-06T06:35:14.424Z,6.08
2018-08-06T06:37:50.257Z,6.58
2018-08-06T06:40:26.182Z,6.15
2018-08-06T06:43:02.445Z,5.67
2018-08-06T06:45:38.102Z,5.70
2018-08-06T06:48:13.542Z,6.15
2018-08-06T06:50:48.869Z,5.55
2018-08-06T06:53:24.335Z,5.60
2018-08-06T06:55:59.963Z,5.17
2018-08-06T06:58:35.293Z,5.75
2018-08-06T07:01:10.750Z,5.08
2018-08-06T07:03:46.169Z,5.78
2018-08-06T07:06:21.616Z,5.15
2018-08-06T07:08:57.250Z,5.42
2018-08-06T07:11:32.994Z,4.70
2018-08-06T07:14:08.455Z,5.70
2018-08-06T07:16:44.097Z,4.97
2018-08-06T07:19:19.538Z,4.37
2018-08-06T07:21:54.882Z,5.10
2018-08-06T07:24:30.121Z,5.15
2018-08-06T07:27:05.462Z,4.85
2018-08-06T07:29:41.985Z,5.00
2018-08-06T07:32:17.669Z,5.12
2018-08-06T07:34:53.024Z,5.30
2018-08-06T07:37:28.294Z,4.83
2018-08-06T07:40:04.831Z,4.90
2018-08-06T07:42:40.861Z,5.10
2018-08-06T07:45:19.785Z,4.72
2018-08-06T07:47:55.015Z,5.12
2018-08-06T07:50:30.470Z,5.08
2018-08-06T07:53:06.273Z,4.67
2018-08-06T07:55:41.716Z,5.55
2018-08-06T07:58:17.147Z,4.95
2018-08-06T08:00:53.311Z,4.92
2018-08-06T08:03:28.586Z,5.28
2018-08-06T08:06:04.205Z,4.67
2018-08-06T08:08:39.834Z,4.35
2018-08-06T08:11:15.329Z,4.78
2018-08-06T08:13:50.752Z,4.80
2018-08-06T08:16:26.058Z,5.35
2018-08-06T08:19:01.441Z,4.67
2018-08-06T08:21:36.781Z,4.60
2018-08-06T08:24:12.467Z,4.58
2018-08-06T08:26:48.345Z,4.40
2018-08-06T08:29:23.738Z,4.55
2018-08-06T08:31:58.966Z,4.50
2018-08-06T08:34:34.669Z,5.12
2018-08-06T08:37:10.320Z,4.72
2018-08-06T08:39:46.061Z,4.60
2018-08-06T08:42:21.793Z,4.62
2018-08-06T08:44:57.249Z,5.03
2018-08-06T08:47:32.741Z,5.17
2018-08-06T08:50:10.534Z,4.72
2018-08-06T08:52:46.374Z,4.80
2018-08-06T08:55:22.490Z,4.95
2018-08-06T08:57:57.730Z,4.97
2018-08-06T09:00:33.506Z,4.60
2018-08-06T09:03:08.882Z,4.62
2018-08-06T09:05:44.392Z,4.40
2018-08-06T09:08:20.280Z,5.05
2018-08-06T09:10:55.702Z,4.62
2018-08-06T09:13:31.053Z,4.75
2018-08-06T09:16:06.884Z,4.40
2018-08-06T09:18:42.306Z,4.47
2018-08-06T09:21:18.167Z,4.90
2018-08-06T09:23:53.906Z,4.37
2018-08-06T09:26:29.247Z,4.40
2018-08-06T09:29:04.803Z,4.97
2018-08-06T09:31:39.976Z,15.47
2018-08-06T09:34:15.167Z,4.37
2018-08-06T09:36:51.375Z,4.73
2018-08-06T09:39:26.516Z,4.60
2018-08-06T09:42:02.754Z,4.80
2018-08-06T09:44:38.462Z,5.07
2018-08-06T09:47:13.419Z,4.90
2018-08-06T09:49:48.329Z,4.80
2018-08-06T09:52:23.490Z,4.60
2018-08-06T09:54:58.565Z,5.00
2018-08-06T09:57:33.779Z,4.90
2018-08-06T10:00:16.417Z,4.73
2018-08-06T10:02:52.465Z,5.27
2018-08-06T10:05:28.120Z,5.20
2018-08-06T10:08:04.107Z,4.57
2018-08-06T10:10:39.341Z,4.83
2018-08-06T10:13:15.074Z,4.70
2018-08-06T10:15:50.058Z,5.03
2018-08-06T10:18:25.636Z,4.93
2018-08-06T10:21:00.849Z,5.60
2018-08-06T10:23:36.009Z,5.77
2018-08-06T10:26:11.563Z,5.47
2018-08-06T10:28:47.119Z,5.17
2018-08-06T10:31:22.819Z,4.70
2018-08-06T10:33:58.146Z,7.57
2018-08-06T10:36:33.129Z,4.60
2018-08-06T10:39:08.829Z,5.50
2018-08-06T10:41:43.931Z,5.30
2018-08-06T10:44:19.781Z,4.80
2018-08-06T10:46:54.947Z,5.00
2018-08-06T10:49:29.971Z,5.30
2018-08-06T10:52:04.677Z,5.37
2018-08-06T10:54:39.966Z,5.50
2018-08-06T10:57:15.233Z,5.10
2018-08-06T10:59:50.598Z,5.63
2018-08-06T11:02:25.799Z,5.30
2018-08-06T11:05:01.189Z,5.57
2018-08-06T11:07:36.528Z,5.13
2018-08-06T11:10:13.699Z,5.70
2018-08-06T11:12:48.949Z,5.33
2018-08-06T11:15:25.315Z,5.47
2018-08-06T11:18:00.663Z,5.03
2018-08-06T11:20:35.817Z,5.50
2018-08-06T11:23:10.812Z,5.63
2018-08-06T11:25:46.237Z,5.20
2018-08-06T11:28:21.193Z,5.47
2018-08-06T11:30:57.480Z,5.77
2018-08-06T11:33:32.482Z,5.50
2018-08-06T11:36:07.740Z,5.30
2018-08-06T11:38:42.852Z,5.17
2018-08-06T11:41:17.917Z,5.50
2018-08-06T11:43:53.104Z,5.10
2018-08-06T11:46:28.200Z,5.07
2018-08-06T11:49:03.616Z,5.97
2018-08-06T11:51:38.681Z,5.00
2018-08-06T11:54:13.898Z,5.10
2018-08-06T11:56:49.303Z,4.80
2018-08-06T11:59:24.472Z,5.50
2018-08-06T12:01:59.622Z,5.07
2018-08-06T12:04:34.987Z,5.30
2018-08-06T12:07:10.592Z,5.13
2018-08-06T12:09:45.794Z,5.30
2018-08-06T12:12:21.220Z,4.97
2018-08-06T12:14:56.336Z,5.30
2018-08-06T12:17:31.548Z,5.40
2018-08-06T12:20:10.679Z,5.30
2018-08-06T12:22:47.286Z,4.90
2018-08-06T12:25:22.682Z,5.70
2018-08-06T12:27:58.093Z,5.87
2018-08-06T12:30:33.644Z,5.43
2018-08-06T12:33:08.963Z,5.50
2018-08-06T12:35:43.992Z,5.70
2018-08-06T12:38:19.336Z,5.50
2018-08-06T12:40:54.450Z,5.23
2018-08-06T12:43:29.687Z,5.30
2018-08-06T12:46:04.816Z,5.13
2018-08-06T12:48:40.553Z,5.13
2018-08-06T12:51:15.725Z,5.97
2018-08-06T12:53:51.110Z,5.37
2018-08-06T12:56:26.245Z,5.20
2018-08-06T12:59:01.318Z,5.20
2018-08-06T13:01:36.367Z,5.83
2018-08-06T13:04:11.602Z,5.53
2018-08-06T13:06:47.115Z,6.40
2018-08-06T13:09:22.274Z,5.37
2018-08-06T13:11:57.464Z,5.80
2018-08-06T13:14:32.611Z,5.83
2018-08-06T13:17:08.227Z,5.63
2018-08-06T13:19:43.714Z,5.10
2018-08-06T13:22:18.787Z,5.40
2018-08-06T13:24:53.745Z,5.23
2018-08-06T13:27:29.669Z,5.33
2018-08-06T13:30:08.271Z,5.73
2018-08-06T13:32:44.002Z,5.33
2018-08-06T13:35:19.172Z,6.10
2018-08-06T13:37:54.292Z,5.50
2018-08-06T13:40:30.102Z,5.30
2018-08-06T13:43:05.955Z,5.67
2018-08-06T13:45:40.987Z,4.90
2018-08-06T13:48:16.382Z,5.07
2018-08-06T13:50:51.350Z,5.73
2018-08-06T13:53:27.580Z,5.87
2018-08-06T13:56:02.657Z,5.83
2018-08-06T13:58:38.558Z,5.67
2018-08-06T14:01:14.117Z,5.67
2018-08-06T14:03:49.458Z,5.33
2018-08-06T14:06:24.876Z,5.30
2018-08-06T14:08:59.938Z,5.27
2018-08-06T14:11:36.248Z,5.30
2018-08-06T14:14:11.424Z,5.27
2018-08-06T14:16:47.126Z,5.60
2018-08-06T14:19:22.615Z,5.53
2018-08-06T14:21:57.940Z,5.93
2018-08-06T14:24:33.106Z,5.83
2018-08-06T14:27:08.199Z,5.77
2018-08-06T14:29:43.114Z,5.53
2018-08-06T14:32:18.700Z,5.90
2018-08-06T14:34:54.433Z,5.40
2018-08-06T14:37:29.587Z,5.63
2018-08-06T14:40:06.747Z,5.53
2018-08-06T14:42:41.739Z,5.53
2018-08-06T14:45:16.882Z,5.30
2018-08-06T14:47:51.891Z,5.70
2018-08-06T14:50:26.974Z,5.40
2018-08-06T14:53:02.786Z,6.13
2018-08-06T14:55:38.229Z,6.20
2018-08-06T14:58:13.234Z,5.63
2018-08-06T15:00:48.279Z,5.43
2018-08-06T15:03:23.491Z,6.03
2018-08-06T15:05:58.724Z,5.30
2018-08-06T15:08:34.118Z,5.60
2018-08-06T15:11:09.305Z,5.87
2018-08-06T15:13:44.558Z,6.00
2018-08-06T15:16:20.082Z,5.93
2018-08-06T15:18:55.550Z,5.67
2018-08-06T15:21:30.599Z,6.10
2018-08-06T15:24:05.891Z,5.60
2018-08-06T15:26:40.949Z,5.40
2018-08-06T15:29:15.939Z,5.63
2018-08-06T15:31:51.704Z,6.03
2018-08-06T15:34:27.229Z,5.90
2018-08-06T15:37:02.377Z,6.07
2018-08-06T15:39:37.596Z,6.50
2018-08-06T15:42:12.527Z,5.87
2018-08-06T15:44:47.637Z,6.20
2018-08-06T15:47:23.505Z,6.03
2018-08-06T15:49:58.550Z,5.70
2018-08-06T15:52:33.658Z,6.53
2018-08-06T15:55:09.733Z,6.27
2018-08-06T15:57:44.753Z,6.80
2018-08-06T16:00:20.689Z,6.47
2018-08-06T16:02:56.157Z,6.87
2018-08-06T16:05:31.272Z,6.37
2018-08-06T16:08:06.750Z,6.43
2018-08-06T16:10:41.724Z,6.57
2018-08-06T16:13:16.874Z,6.70
2018-08-06T16:15:52.130Z,6.50
2018-08-06T16:18:27.353Z,5.93
2018-08-06T16:21:02.887Z,6.87
2018-08-06T16:23:37.989Z,7.30
2018-08-06T16:26:13.121Z,6.93
2018-08-06T16:28:48.317Z,6.67
2018-08-06T16:31:23.726Z,7.10
2018-08-06T16:33:59.487Z,6.93
2018-08-06T16:36:34.569Z,7.17
2018-08-06T16:39:13.307Z,6.40
2018-08-06T16:41:48.293Z,7.03
2018-08-06T16:44:23.500Z,12.33
2018-08-06T16:46:58.672Z,7.03
2018-08-06T16:49:34.031Z,7.00
2018-08-06T16:52:10.059Z,9.70
2018-08-06T16:54:46.125Z,8.10
2018-08-06T16:57:21.333Z,7.00
2018-08-06T16:59:57.222Z,8.60
2018-08-06T17:02:32.219Z,7.70
2018-08-06T17:05:10.014Z,7.57
2018-08-06T17:07:46.583Z,7.67
2018-08-06T17:10:22.307Z,7.60
2018-08-06T17:12:57.755Z,6.50
2018-08-06T17:15:32.891Z,7.10
2018-08-06T17:18:07.921Z,7.47
2018-08-06T17:20:43.422Z,9.13
2018-08-06T17:23:18.677Z,7.20
2018-08-06T17:25:53.885Z,6.93
2018-08-06T17:28:29.050Z,7.00
2018-08-06T17:31:04.424Z,6.97
2018-08-06T17:33:40.430Z,7.00
2018-08-06T17:36:15.429Z,7.40
2018-08-06T17:38:51.443Z,6.83
2018-08-06T17:41:26.542Z,7.33
2018-08-06T17:44:02.004Z,7.23
2018-08-06T17:46:37.371Z,6.57
2018-08-06T17:49:12.555Z,6.63
2018-08-06T17:51:48.490Z,7.17
2018-08-06T17:54:24.641Z,6.80
2018-08-06T17:56:59.878Z,6.60
2018-08-06T17:59:35.003Z,6.87
2018-08-06T18:02:10.843Z,6.10
2018-08-06T18:04:46.944Z,6.80
2018-08-06T18:07:21.923Z,7.00
2018-08-06T18:09:56.998Z,6.90
2018-08-06T18:12:32.613Z,7.80
2018-08-06T18:15:08.073Z,6.47
2018-08-06T18:17:44.043Z,6.95
2018-08-06T18:20:19.945Z,9.50
2018-08-06T18:22:54.912Z,6.62
2018-08-06T18:25:30.330Z,26.57
2018-08-06T18:28:06.192Z,7.37
2018-08-06T18:30:42.330Z,7.00
2018-08-06T18:33:18.496Z,6.37
2018-08-06T18:35:54.169Z,6.87
2018-08-06T18:38:29.550Z,6.90
2018-08-06T18:41:05.879Z,6.83
2018-08-06T18:43:41.759Z,7.17
2018-08-06T18:46:17.379Z,8.60
2018-08-06T18:48:53.867Z,6.45
2018-08-06T18:51:29.765Z,6.60
2018-08-06T18:54:05.251Z,7.05
2018-08-06T18:56:40.551Z,7.15
2018-08-06T18:59:16.085Z,6.53
2018-08-06T19:01:51.982Z,6.85
2018-08-06T19:04:28.088Z,6.53
2018-08-06T19:07:04.679Z,6.80
2018-08-06T19:09:40.194Z,7.40
2018-08-06T19:12:21.146Z,7.42
2018-08-06T19:14:57.158Z,6.75
2018-08-06T19:17:33.547Z,7.20
2018-08-06T19:20:08.934Z,7.20
2018-08-06T19:22:45.338Z,6.55
2018-08-06T19:25:26.938Z,7.50
2018-08-06T19:28:02.401Z,6.65
2018-08-06T19:30:43.351Z,7.35
2018-08-06T19:33:19.218Z,7.47
2018-08-06T19:35:54.937Z,7.83
2018-08-06T19:38:30.613Z,8.03
2018-08-06T19:41:05.622Z,8.28
2018-08-06T19:43:40.936Z,9.68
2018-08-06T19:46:16.786Z,8.60
2018-08-06T19:48:52.741Z,8.93
2018-08-06T19:51:28.402Z,8.38
2018-08-06T19:54:03.822Z,9.03
2018-08-06T19:56:39.466Z,9.18
2018-08-06T19:59:14.977Z,9.10
2018-08-06T20:01:50.865Z,8.65
2018-08-06T20:04:30.757Z,9.33
2018-08-06T20:07:06.886Z,9.68
2018-08-06T20:09:42.661Z,9.00
2018-08-06T20:12:18.286Z,9.63
2018-08-06T20:14:53.973Z,9.23
2018-08-06T20:17:30.820Z,8.48
2018-08-06T20:20:07.394Z,9.60
2018-08-06T20:22:42.547Z,9.13
2018-08-06T20:25:19.408Z,8.70
2018-08-06T20:27:55.417Z,9.78
2018-08-06T20:30:31.424Z,9.00
2018-08-06T20:33:07.493Z,9.43
2018-08-06T20:35:43.203Z,9.48
2018-08-06T20:38:19.783Z,9.48
2018-08-06T20:40:54.925Z,10.10
2018-08-06T20:43:30.418Z,9.73
2018-08-06T20:46:06.352Z,10.13
2018-08-06T20:48:42.073Z,10.35
2018-08-06T20:51:17.994Z,10.20
2018-08-06T20:53:54.136Z,10.65
2018-08-06T20:56:29.943Z,10.23
2018-08-06T20:59:06.699Z,10.30
2018-08-06T21:01:43.424Z,11.20
2018-08-06T21:04:19.096Z,10.30
2018-08-06T21:06:55.251Z,10.35
2018-08-06T21:09:30.100Z,10.90
2018-08-06T21:12:06.364Z,10.70
2018-08-06T21:14:41.993Z,10.85
2018-08-06T21:17:17.537Z,10.18
2018-08-06T21:19:53.465Z,10.48
2018-08-06T21:22:28.797Z,10.80
2018-08-06T21:25:05.905Z,11.08
2018-08-06T21:27:42.515Z,11.28
2018-08-06T21:30:20.764Z,11.93
2018-08-06T21:32:57.511Z,12.28
2018-08-06T21:35:33.845Z,11.33
2018-08-06T21:38:09.492Z,11.80
2018-08-06T21:40:47.944Z,12.10
2018-08-06T21:43:23.811Z,11.55
2018-08-06T21:45:58.828Z,12.00
2018-08-06T21:48:34.759Z,11.20
2018-08-06T21:51:10.593Z,11.57
2018-08-06T21:53:46.041Z,11.40
2018-08-06T21:56:21.991Z,11.78
2018-08-06T21:58:57.562Z,11.65
2018-08-06T22:01:33.006Z,11.88
2018-08-06T22:04:08.740Z,10.80
2018-08-06T22:06:44.358Z,10.40
2018-08-06T22:09:20.266Z,10.30
2018-08-06T22:11:55.748Z,10.23
2018-08-06T22:14:31.009Z,10.23
2018-08-06T22:17:07.036Z,11.63
2018-08-06T22:19:42.549Z,10.50
2018-08-06T22:22:17.931Z,11.43
2018-08-06T22:24:53.919Z,11.35
2018-08-06T22:27:29.601Z,10.82
2018-08-06T22:30:05.537Z,10.98
2018-08-06T22:32:41.563Z,11.10
2018-08-06T22:35:16.894Z,9.93
2018-08-06T22:37:52.727Z,10.63
2018-08-06T22:40:28.626Z,10.65
2018-08-06T22:43:03.801Z,10.68
2018-08-06T22:45:39.972Z,11.25
2018-08-06T22:48:15.286Z,10.98
2018-08-06T22:50:57.484Z,11.35
2018-08-06T22:53:34.175Z,11.10
2018-08-06T22:56:11.304Z,10.93
2018-08-06T22:58:46.645Z,10.50
2018-08-06T23:01:23.308Z,11.10
2018-08-06T23:03:58.846Z,11.05
2018-08-06T23:06:34.410Z,10.65
2018-08-06T23:09:12.125Z,10.53
2018-08-06T23:11:47.884Z,10.35
2018-08-06T23:14:23.454Z,11.12
2018-08-06T23:16:58.868Z,10.72
2018-08-06T23:19:34.694Z,11.28
2018-08-06T23:22:09.674Z,10.50
2018-08-06T23:24:45.098Z,11.28
2018-08-06T23:27:20.396Z,11.73
2018-08-06T23:29:55.947Z,11.50
2018-08-06T23:32:31.707Z,11.70
2018-08-06T23:35:08.431Z,10.55
2018-08-06T23:37:44.994Z,11.22
2018-08-06T23:40:20.469Z,11.68
2018-08-06T23:42:56.275Z,11.22
2018-08-06T23:45:31.334Z,11.60
2018-08-06T23:48:07.570Z,12.00
2018-08-06T23:50:43.369Z,11.48
2018-08-06T23:53:19.429Z,11.97
2018-08-06T23:55:55.335Z,11.38
2018-08-06T23:58:31.342Z,12.00
